Time;durP1;ratioP1;P1;durP2;ratioP2;P2;SDS_P1;SDS_P2;PMS_P1;PMS_P2;Temp;Humidity;BMP_temperature;BMP_pressure;BME280_temperature;BME280_humidity;BME280_pressure;Samples;Min_cycle;Max_cycle;Signal;HPM_P1;HPM_P2
2021/09/04 00:01:59;;;;;;;12.48;6.07;;;;;;;;;;5036389;28;20025;-84
2021/09/04 00:04:25;;;;;;;14.97;6.77;;;;;;;;;;5036948;28;20199;-84
2021/09/04 00:06:50;;;;;;;13.23;5.78;;;;;;;;;;5034996;28;20455;-84
2021/09/04 00:09:15;;;;;;;10.93;6.10;;;;;;;;;;5034303;28;20044;-83
2021/09/04 00:11:40;;;;;;;18.13;6.27;;;;;;;;;;5031242;28;20025;-84
2021/09/04 00:14:06;;;;;;;13.00;6.32;;;;;;;;;;5032673;28;20268;-83
2021/09/04 00:16:31;;;;;;;15.35;6.50;;;;;;;;;;5031289;28;20076;-84
2021/09/04 00:18:56;;;;;;;12.52;5.95;;;;;;;;;;5031204;28;20040;-83
2021/09/04 00:21:22;;;;;;;20.17;7.15;;;;;;;;;;5031261;28;20071;-83
2021/09/04 00:23:47;;;;;;;12.07;6.55;;;;;;;;;;5030854;28;20268;-83
2021/09/04 00:26:12;;;;;;;14.60;6.10;;;;;;;;;;5032559;28;20455;-82
2021/09/04 00:28:37;;;;;;;12.18;6.70;;;;;;;;;;5034447;28;20104;-83
2021/09/04 00:31:03;;;;;;;17.80;7.70;;;;;;;;;;5039592;28;20052;-84
2021/09/04 00:33:28;;;;;;;15.50;7.28;;;;;;;;;;5040628;28;20284;-84
2021/09/04 00:35:53;;;;;;;11.77;6.35;;;;;;;;;;5036597;28;20583;-83
2021/09/04 00:38:18;;;;;;;12.10;6.63;;;;;;;;;;5038933;28;20022;-84
2021/09/04 00:40:44;;;;;;;17.52;7.40;;;;;;;;;;5036184;28;20033;-84
2021/09/04 00:43:10;;;;;;;14.40;7.25;;;;;;;;;;5037537;28;20104;-83
2021/09/04 00:45:35;;;;;;;19.10;7.35;;;;;;;;;;5036042;28;20021;-83
2021/09/04 00:48:02;;;;;;;15.25;7.07;;;;;;;;;;5035835;28;20025;-83
2021/09/04 00:50:28;;;;;;;24.42;6.63;;;;;;;;;;5035279;28;20160;-83
2021/09/04 00:52:54;;;;;;;17.38;7.97;;;;;;;;;;5034766;28;20088;-83
2021/09/04 00:55:20;;;;;;;19.52;7.82;;;;;;;;;;5033294;28;20040;-83
2021/09/04 00:57:46;;;;;;;20.58;7.93;;;;;;;;;;5041513;28;20021;-84
2021/09/04 01:00:11;;;;;;;18.83;8.55;;;;;;;;;;5038648;28;20021;-84
2021/09/04 01:02:36;;;;;;;16.38;8.40;;;;;;;;;;5038552;28;20029;-83
2021/09/04 01:05:02;;;;;;;21.27;8.45;;;;;;;;;;5037348;28;20026;-83
2021/09/04 01:07:27;;;;;;;19.35;7.85;;;;;;;;;;5036264;28;20043;-83
2021/09/04 01:09:53;;;;;;;21.90;9.45;;;;;;;;;;5036427;28;20091;-83
2021/09/04 01:12:18;;;;;;;26.15;8.95;;;;;;;;;;5036011;28;20080;-83
2021/09/04 01:14:43;;;;;;;21.40;8.93;;;;;;;;;;5033767;28;20464;-83
2021/09/04 01:17:08;;;;;;;25.07;10.00;;;;;;;;;;5034766;28;20052;-83
2021/09/04 01:19:33;;;;;;;24.90;9.83;;;;;;;;;;5034434;28;20456;-83
2021/09/04 01:21:59;;;;;;;23.83;9.67;;;;;;;;;;5038010;28;20299;-83
2021/09/04 01:24:24;;;;;;;26.80;10.43;;;;;;;;;;5038628;28;20025;-83
2021/09/04 01:26:49;;;;;;;25.10;9.75;;;;;;;;;;5036520;28;20022;-83
2021/09/04 01:29:15;;;;;;;23.02;9.35;;;;;;;;;;5037207;28;20051;-84
2021/09/04 01:31:40;;;;;;;24.50;10.47;;;;;;;;;;5034496;28;20029;-84
2021/09/04 01:34:06;;;;;;;26.93;11.03;;;;;;;;;;5034333;28;20751;-84
2021/09/04 01:36:32;;;;;;;27.75;11.52;;;;;;;;;;5034694;28;20017;-83
2021/09/04 01:38:58;;;;;;;30.10;10.68;;;;;;;;;;5033049;28;20048;-83
2021/09/04 01:41:23;;;;;;;29.58;11.23;;;;;;;;;;5035843;28;20786;-83
2021/09/04 01:43:49;;;;;;;25.45;10.80;;;;;;;;;;5034657;28;20051;-84
2021/09/04 01:46:14;;;;;;;22.33;11.20;;;;;;;;;;5034221;28;20029;-84
2021/09/04 01:48:39;;;;;;;24.83;10.77;;;;;;;;;;5032740;28;20132;-83
2021/09/04 01:51:04;;;;;;;33.90;11.67;;;;;;;;;;5038134;28;20371;-84
2021/09/04 01:53:30;;;;;;;24.95;11.70;;;;;;;;;;5039823;28;20351;-84
2021/09/04 01:55:55;;;;;;;30.05;10.85;;;;;;;;;;5036798;28;20017;-83
2021/09/04 01:58:20;;;;;;;31.10;11.70;;;;;;;;;;5036263;28;20116;-84
2021/09/04 02:00:45;;;;;;;33.88;11.30;;;;;;;;;;5036967;28;20343;-84
2021/09/04 02:03:10;;;;;;;28.23;11.17;;;;;;;;;;5035707;28;20037;-84
2021/09/04 02:05:36;;;;;;;33.47;12.50;;;;;;;;;;5034935;28;20275;-83
2021/09/04 02:08:01;;;;;;;27.13;11.50;;;;;;;;;;5032171;28;20396;-84
2021/09/04 02:10:26;;;;;;;26.27;11.60;;;;;;;;;;5031922;28;20029;-83
2021/09/04 02:12:51;;;;;;;34.00;13.37;;;;;;;;;;5034064;28;20018;-83
2021/09/04 02:15:18;;;;;;;29.47;12.40;;;;;;;;;;5035818;28;20291;-83
2021/09/04 02:17:43;;;;;;;24.67;11.57;;;;;;;;;;5034719;28;20287;-83
2021/09/04 02:20:09;;;;;;;31.48;12.27;;;;;;;;;;5034867;28;20026;-84
2021/09/04 02:22:34;;;;;;;33.22;11.43;;;;;;;;;;5037742;28;20372;-83
2021/09/04 02:25:01;;;;;;;34.55;13.00;;;;;;;;;;5038118;28;20030;-83
2021/09/04 02:27:27;;;;;;;29.05;11.70;;;;;;;;;;5036547;28;20021;-84
2021/09/04 02:29:52;;;;;;;32.37;13.00;;;;;;;;;;5033838;28;20032;-83
2021/09/04 02:32:17;;;;;;;34.13;12.00;;;;;;;;;;5034623;28;20922;-83
2021/09/04 02:34:42;;;;;;;30.58;12.63;;;;;;;;;;5033615;28;20039;-83
2021/09/04 02:37:07;;;;;;;31.05;11.93;;;;;;;;;;5032822;28;20123;-83
2021/09/04 02:39:33;;;;;;;29.13;14.23;;;;;;;;;;5032412;28;20036;-82
2021/09/04 02:41:58;;;;;;;25.85;11.98;;;;;;;;;;5030784;28;20032;-83
2021/09/04 02:44:23;;;;;;;37.27;14.13;;;;;;;;;;5033258;28;20039;-84
2021/09/04 02:46:48;;;;;;;29.63;12.70;;;;;;;;;;5038708;28;20299;-84
2021/09/04 02:49:13;;;;;;;45.70;13.57;;;;;;;;;;5036519;28;20025;-84
2021/09/04 02:51:41;;;;;;;30.95;13.23;;;;;;;;;;5036889;28;20275;-83
2021/09/04 02:54:06;;;;;;;30.02;14.13;;;;;;;;;;5036281;28;20021;-84
2021/09/04 02:56:31;;;;;;;30.77;12.43;;;;;;;;;;5035484;28;20442;-83
2021/09/04 02:58:56;;;;;;;30.57;13.90;;;;;;;;;;5032105;28;20748;-83
2021/09/04 03:01:22;;;;;;;37.37;14.47;;;;;;;;;;5033376;28;20029;-83
2021/09/04 03:03:47;;;;;;;30.20;13.40;;;;;;;;;;5032574;28;20624;-83
2021/09/04 03:06:12;;;;;;;36.73;14.40;;;;;;;;;;5030480;28;20048;-83
2021/09/04 03:08:37;;;;;;;32.23;13.70;;;;;;;;;;5030253;28;20263;-83
2021/09/04 03:11:05;;;;;;;39.57;14.47;;;;;;;;;;5033476;28;20033;-84
2021/09/04 03:13:31;;;;;;;33.25;14.38;;;;;;;;;;5038419;28;20616;-84
2021/09/04 03:15:56;;;;;;;31.25;14.55;;;;;;;;;;5036238;28;20052;-84
2021/09/04 03:18:21;;;;;;;30.63;14.67;;;;;;;;;;5034407;28;20072;-84
2021/09/04 03:20:46;;;;;;;39.97;14.27;;;;;;;;;;5035201;28;20025;-84
2021/09/04 03:23:11;;;;;;;36.00;14.47;;;;;;;;;;5033892;28;20025;-84
2021/09/04 03:25:37;;;;;;;43.23;14.83;;;;;;;;;;5031455;28;20025;-83
2021/09/04 03:28:02;;;;;;;41.50;15.40;;;;;;;;;;5032456;28;20351;-83
2021/09/04 03:30:27;;;;;;;32.75;14.65;;;;;;;;;;5030650;28;20032;-83
2021/09/04 03:32:52;;;;;;;37.92;15.05;;;;;;;;;;5031620;28;20048;-83
2021/09/04 03:35:17;;;;;;;38.78;16.40;;;;;;;;;;5031897;28;20064;-83
2021/09/04 03:37:43;;;;;;;35.40;15.60;;;;;;;;;;5031551;28;20029;-83
2021/09/04 03:40:08;;;;;;;38.27;17.50;;;;;;;;;;5033461;28;20264;-84
2021/09/04 03:42:34;;;;;;;46.53;17.30;;;;;;;;;;5039109;28;20261;-84
2021/09/04 03:44:59;;;;;;;36.07;16.27;;;;;;;;;;5036731;28;20032;-84
2021/09/04 03:47:24;;;;;;;31.77;15.65;;;;;;;;;;5035541;28;20496;-83
2021/09/04 03:49:49;;;;;;;42.80;17.30;;;;;;;;;;5034513;28;20025;-84
2021/09/04 03:52:14;;;;;;;37.67;17.10;;;;;;;;;;5036634;28;20125;-84
2021/09/04 03:54:40;;;;;;;36.42;16.33;;;;;;;;;;5035507;28;20017;-84
2021/09/04 03:57:05;;;;;;;35.25;16.13;;;;;;;;;;5034797;28;20024;-84
2021/09/04 03:59:30;;;;;;;49.37;17.67;;;;;;;;;;5032191;28;20084;-84
2021/09/04 04:01:55;;;;;;;39.08;17.33;;;;;;;;;;5030712;28;20256;-84
2021/09/04 04:04:21;;;;;;;43.77;17.73;;;;;;;;;;5032116;28;20108;-84
2021/09/04 04:06:46;;;;;;;45.20;17.57;;;;;;;;;;5030576;28;20023;-83
2021/09/04 04:09:11;;;;;;;35.53;17.27;;;;;;;;;;5031271;28;20144;-83
2021/09/04 04:11:37;;;;;;;38.53;17.40;;;;;;;;;;5033661;28;20284;-84
2021/09/04 04:14:03;;;;;;;33.42;16.35;;;;;;;;;;5035458;28;20017;-83
2021/09/04 04:16:28;;;;;;;36.90;16.53;;;;;;;;;;5034999;28;20128;-84
2021/09/04 04:18:53;;;;;;;32.63;16.60;;;;;;;;;;5031937;28;20339;-82
2021/09/04 04:21:18;;;;;;;35.97;16.10;;;;;;;;;;5034574;28;20481;-84
2021/09/04 04:23:43;;;;;;;39.90;17.35;;;;;;;;;;5034364;28;20038;-83
2021/09/04 04:26:09;;;;;;;37.20;16.10;;;;;;;;;;5033889;28;20025;-84
2021/09/04 04:28:34;;;;;;;31.73;16.30;;;;;;;;;;5033064;28;20264;-83
2021/09/04 04:31:00;;;;;;;42.40;16.60;;;;;;;;;;5030333;28;20780;-84
2021/09/04 04:33:26;;;;;;;34.75;15.82;;;;;;;;;;5031843;28;20309;-83
2021/09/04 04:35:51;;;;;;;37.83;15.27;;;;;;;;;;5029832;28;20022;-83
2021/09/04 04:38:16;;;;;;;40.37;16.80;;;;;;;;;;5037135;28;20342;-84
2021/09/04 04:40:41;;;;;;;41.50;17.73;;;;;;;;;;5034659;28;20545;-83
2021/09/04 04:43:06;;;;;;;47.43;18.47;;;;;;;;;;5035034;28;20071;-83
2021/09/04 04:45:31;;;;;;;39.78;17.73;;;;;;;;;;5032278;28;20252;-84
2021/09/04 04:47:57;;;;;;;39.73;16.43;;;;;;;;;;5031081;28;20127;-83
2021/09/04 04:50:22;;;;;;;42.57;17.00;;;;;;;;;;5032155;28;20200;-83
2021/09/04 04:52:47;;;;;;;43.17;17.07;;;;;;;;;;5032003;28;20291;-83
2021/09/04 04:55:13;;;;;;;41.20;17.48;;;;;;;;;;5033357;28;20877;-83
2021/09/04 04:57:38;;;;;;;35.42;16.55;;;;;;;;;;5032238;28;20022;-84
2021/09/04 05:00:04;;;;;;;46.90;18.60;;;;;;;;;;5031975;28;20017;-83
2021/09/04 05:02:29;;;;;;;42.42;18.02;;;;;;;;;;5029660;28;20283;-83
2021/09/04 05:04:54;;;;;;;46.17;17.00;;;;;;;;;;5033678;28;20496;-84
2021/09/04 05:07:19;;;;;;;35.60;15.00;;;;;;;;;;5034869;28;20351;-84
2021/09/04 05:09:44;;;;;;;42.33;17.57;;;;;;;;;;5035262;28;20036;-83
2021/09/04 05:12:10;;;;;;;53.37;17.77;;;;;;;;;;5034081;28;20100;-83
2021/09/04 05:14:35;;;;;;;36.07;16.83;;;;;;;;;;5037084;28;20707;-83
2021/09/04 05:17:00;;;;;;;40.40;18.87;;;;;;;;;;5035342;28;20057;-83
2021/09/04 05:19:25;;;;;;;41.58;16.58;;;;;;;;;;5033593;28;20326;-83
2021/09/04 05:21:51;;;;;;;40.00;17.77;;;;;;;;;;5034450;28;20469;-83
2021/09/04 05:24:16;;;;;;;38.30;17.65;;;;;;;;;;5036950;28;20061;-83
2021/09/04 05:26:41;;;;;;;33.87;15.83;;;;;;;;;;5037757;28;20052;-84
2021/09/04 05:29:06;;;;;;;39.13;16.17;;;;;;;;;;5037126;28;20291;-83
2021/09/04 05:31:31;;;;;;;33.85;17.52;;;;;;;;;;5035965;28;20080;-83
2021/09/04 05:33:57;;;;;;;41.70;17.95;;;;;;;;;;5035929;28;20026;-84
2021/09/04 05:36:23;;;;;;;38.80;16.88;;;;;;;;;;5040254;28;20030;-84
2021/09/04 05:38:48;;;;;;;40.60;18.15;;;;;;;;;;5040143;28;20469;-84
2021/09/04 05:41:13;;;;;;;39.70;16.67;;;;;;;;;;5037228;28;20060;-84
2021/09/04 05:43:38;;;;;;;30.00;16.30;;;;;;;;;;5034288;28;20026;-83
2021/09/04 05:46:03;;;;;;;40.93;17.80;;;;;;;;;;5033983;28;20029;-83
2021/09/04 05:48:29;;;;;;;37.63;18.17;;;;;;;;;;5034466;28;20260;-83
2021/09/04 05:50:54;;;;;;;35.05;16.98;;;;;;;;;;5034500;28;20017;-83
2021/09/04 05:53:19;;;;;;;42.83;21.07;;;;;;;;;;5034635;28;20036;-83
2021/09/04 05:55:44;;;;;;;46.53;20.88;;;;;;;;;;5032265;28;20025;-83
2021/09/04 05:58:09;;;;;;;45.70;20.77;;;;;;;;;;5031962;28;20108;-83
2021/09/04 06:00:35;;;;;;;53.70;23.40;;;;;;;;;;5031857;28;20021;-83
2021/09/04 06:03:00;;;;;;;54.08;20.40;;;;;;;;;;5033263;28;20268;-83
2021/09/04 06:05:25;;;;;;;46.00;20.20;;;;;;;;;;5032835;28;20025;-83
2021/09/04 06:07:51;;;;;;;56.58;22.83;;;;;;;;;;5032763;28;20405;-83
2021/09/04 06:10:16;;;;;;;56.25;21.80;;;;;;;;;;5037130;28;20026;-84
2021/09/04 06:12:41;;;;;;;60.77;24.33;;;;;;;;;;5040369;28;20059;-83
2021/09/04 06:15:07;;;;;;;70.30;25.92;;;;;;;;;;5036286;28;20324;-83
2021/09/04 06:17:32;;;;;;;51.72;21.33;;;;;;;;;;5035104;28;20061;-83
2021/09/04 06:19:57;;;;;;;51.05;20.85;;;;;;;;;;5032411;28;20172;-83
2021/09/04 06:22:22;;;;;;;45.78;20.77;;;;;;;;;;5030846;28;20485;-83
2021/09/04 06:24:48;;;;;;;49.17;20.40;;;;;;;;;;5046318;28;20392;-83
2021/09/04 06:27:13;;;;;;;54.97;22.13;;;;;;;;;;5035109;28;20268;-83
2021/09/04 06:29:39;;;;;;;51.50;21.33;;;;;;;;;;5051347;28;20532;-84
2021/09/04 06:32:05;;;;;;;55.08;22.75;;;;;;;;;;5042401;28;20425;-83
2021/09/04 06:34:30;;;;;;;75.88;23.08;;;;;;;;;;5036755;28;20022;-84
2021/09/04 06:36:56;;;;;;;47.58;21.52;;;;;;;;;;5035057;28;20028;-84
2021/09/04 06:39:21;;;;;;;48.10;23.33;;;;;;;;;;5035486;28;20043;-84
2021/09/04 06:41:46;;;;;;;51.67;20.70;;;;;;;;;;5047096;28;20100;-84
2021/09/04 06:44:14;;;;;;;61.20;25.23;;;;;;;;;;5033850;28;20417;-83
2021/09/04 06:46:39;;;;;;;66.25;23.48;;;;;;;;;;5048658;28;20784;-84
2021/09/04 06:49:04;;;;;;;54.77;22.70;;;;;;;;;;5034688;28;20029;-83
2021/09/04 06:51:30;;;;;;;57.67;22.80;;;;;;;;;;5047886;28;20053;-83
2021/09/04 06:53:55;;;;;;;60.37;23.50;;;;;;;;;;5031928;28;20286;-83
2021/09/04 06:56:20;;;;;;;55.27;22.50;;;;;;;;;;5029409;28;20032;-83
2021/09/04 06:58:45;;;;;;;59.50;22.53;;;;;;;;;;5045594;28;20263;-84
2021/09/04 07:01:10;;;;;;;67.13;23.60;;;;;;;;;;5038836;28;20659;-84
2021/09/04 07:03:36;;;;;;;58.50;22.03;;;;;;;;;;5048742;28;20034;-84
2021/09/04 07:06:01;;;;;;;52.83;21.58;;;;;;;;;;5040955;28;20271;-83
2021/09/04 07:08:26;;;;;;;57.15;22.23;;;;;;;;;;5050876;28;20065;-84
2021/09/04 07:10:51;;;;;;;54.47;20.47;;;;;;;;;;5048320;28;20032;-84
2021/09/04 07:13:17;;;;;;;50.17;20.80;;;;;;;;;;5049014;28;20268;-84
2021/09/04 07:15:43;;;;;;;34.80;17.98;;;;;;;;;;5035747;28;20262;-84
2021/09/04 07:18:08;;;;;;;45.05;20.60;;;;;;;;;;5041968;28;20456;-84
2021/09/04 07:20:33;;;;;;;44.93;18.67;;;;;;;;;;5044096;28;20028;-83
2021/09/04 07:22:58;;;;;;;49.63;20.77;;;;;;;;;;5034746;28;20264;-84
2021/09/04 07:25:24;;;;;;;36.40;18.10;;;;;;;;;;5050380;28;20771;-84
2021/09/04 07:27:49;;;;;;;44.28;19.95;;;;;;;;;;5039735;28;20267;-83
2021/09/04 07:30:16;;;;;;;44.63;20.70;;;;;;;;;;5041741;28;20444;-84
2021/09/04 07:32:41;;;;;;;44.33;19.33;;;;;;;;;;5032049;28;20272;-84
2021/09/04 07:35:06;;;;;;;36.95;18.40;;;;;;;;;;5028285;28;20385;-83
2021/09/04 07:37:32;;;;;;;38.83;17.77;;;;;;;;;;5033936;28;20771;-83
2021/09/04 07:39:57;;;;;;;47.77;18.53;;;;;;;;;;5043655;28;20473;-83
2021/09/04 07:42:22;;;;;;;44.80;19.00;;;;;;;;;;5042248;28;20306;-84
2021/09/04 07:44:47;;;;;;;35.20;17.87;;;;;;;;;;5034254;28;20025;-83
2021/09/04 07:47:12;;;;;;;40.53;19.97;;;;;;;;;;5034841;28;20302;-84
2021/09/04 07:49:38;;;;;;;33.08;18.55;;;;;;;;;;5048036;28;20373;-83
2021/09/04 07:52:03;;;;;;;35.72;17.88;;;;;;;;;;5037671;28;20021;-84
2021/09/04 07:54:28;;;;;;;41.83;18.57;;;;;;;;;;5038576;28;20021;-83
2021/09/04 07:56:53;;;;;;;38.10;19.50;;;;;;;;;;5031204;28;20797;-83
2021/09/04 07:59:18;;;;;;;35.23;18.77;;;;;;;;;;5046187;28;20305;-84
2021/09/04 08:01:43;;;;;;;32.90;17.77;;;;;;;;;;5034151;28;20267;-83
2021/09/04 08:04:09;;;;;;;41.77;18.40;;;;;;;;;;5038779;28;20055;-84
2021/09/04 08:06:34;;;;;;;38.73;19.00;;;;;;;;;;5039961;28;20068;-83
2021/09/04 08:08:59;;;;;;;40.83;19.67;;;;;;;;;;5031284;28;20025;-84
2021/09/04 08:11:24;;;;;;;40.10;20.83;;;;;;;;;;5030397;28;20295;-83
2021/09/04 08:13:49;;;;;;;38.70;20.58;;;;;;;;;;5039277;28;20017;-84
2021/09/04 08:16:15;;;;;;;41.43;21.47;;;;;;;;;;5052670;28;20049;-83
2021/09/04 08:18:40;;;;;;;40.45;21.30;;;;;;;;;;5038286;28;20254;-83
2021/09/04 08:21:05;;;;;;;45.07;22.60;;;;;;;;;;5031237;28;20064;-83
2021/09/04 08:23:30;;;;;;;36.75;21.90;;;;;;;;;;5043502;28;20021;-84
2021/09/04 08:25:56;;;;;;;37.40;21.27;;;;;;;;;;5036830;28;20045;-83
2021/09/04 08:28:21;;;;;;;42.20;21.50;;;;;;;;;;5049256;28;20016;-84
2021/09/04 08:30:46;;;;;;;35.80;19.97;;;;;;;;;;5034569;28;20263;-83
2021/09/04 08:33:11;;;;;;;40.58;21.80;;;;;;;;;;5046703;28;20256;-83
2021/09/04 08:35:37;;;;;;;36.17;19.33;;;;;;;;;;5045883;28;20555;-83
2021/09/04 08:38:07;;;;;;;43.43;21.33;;;;;;;;;;5039242;28;20103;-83
2021/09/04 08:40:33;;;;;;;36.73;18.87;;;;;;;;;;5050842;28;20044;-83
2021/09/04 08:42:59;;;;;;;40.05;20.85;;;;;;;;;;5051078;28;20334;-84
2021/09/04 08:45:25;;;;;;;42.42;20.92;;;;;;;;;;5049252;28;20445;-83
2021/09/04 08:47:51;;;;;;;37.50;20.88;;;;;;;;;;5052670;28;20024;-83
2021/09/04 08:50:17;;;;;;;40.55;20.27;;;;;;;;;;5043718;28;20021;-84
2021/09/04 08:52:43;;;;;;;36.28;21.63;;;;;;;;;;5031830;28;20061;-83
2021/09/04 08:55:08;;;;;;;32.72;18.33;;;;;;;;;;5048126;28;20500;-84
2021/09/04 08:57:33;;;;;;;46.13;20.75;;;;;;;;;;5035600;28;20055;-84
2021/09/04 08:59:59;;;;;;;33.87;19.23;;;;;;;;;;5050955;28;20124;-83
2021/09/04 09:02:26;;;;;;;40.00;19.45;;;;;;;;;;5042100;28;20021;-84
2021/09/04 09:04:58;;;;;;;32.97;18.08;;;;;;;;;;5053508;28;20100;-84
2021/09/04 09:07:36;;;;;;;39.92;20.77;;;;;;;;;;5037063;28;20037;-84
2021/09/04 09:10:01;;;;;;;34.92;20.02;;;;;;;;;;5046398;28;20059;-84
2021/09/04 09:12:26;;;;;;;34.00;18.15;;;;;;;;;;5054749;28;20774;-83
2021/09/04 09:14:57;;;;;;;34.83;18.50;;;;;;;;;;5054127;28;20069;-83
2021/09/04 09:17:24;;;;;;;33.85;18.90;;;;;;;;;;5035786;28;20362;-84
2021/09/04 09:19:54;;;;;;;35.83;17.60;;;;;;;;;;5044758;28;20025;-83
2021/09/04 09:22:19;;;;;;;27.58;17.27;;;;;;;;;;5032609;28;20448;-83
2021/09/04 09:24:44;;;;;;;31.47;16.47;;;;;;;;;;5046440;28;20127;-83
2021/09/04 09:27:13;;;;;;;30.67;17.33;;;;;;;;;;5040522;28;20055;-84
2021/09/04 09:29:38;;;;;;;29.20;16.48;;;;;;;;;;5049467;28;20540;-83
2021/09/04 09:32:10;;;;;;;27.87;14.87;;;;;;;;;;5042939;28;20153;-83
2021/09/04 09:34:36;;;;;;;27.83;16.50;;;;;;;;;;5055096;28;20025;-83
2021/09/04 09:37:02;;;;;;;23.17;15.38;;;;;;;;;;5036717;28;20543;-84
2021/09/04 09:39:28;;;;;;;26.48;15.40;;;;;;;;;;5032801;28;20025;-83
2021/09/04 09:41:54;;;;;;;24.40;15.27;;;;;;;;;;5039369;28;20021;-83
2021/09/04 09:44:24;;;;;;;26.80;15.20;;;;;;;;;;5041232;28;20037;-83
2021/09/04 09:46:53;;;;;;;22.30;13.65;;;;;;;;;;5046113;28;20111;-83
2021/09/04 09:49:24;;;;;;;25.45;15.48;;;;;;;;;;5036061;28;20574;-83
2021/09/04 09:51:50;;;;;;;20.63;13.07;;;;;;;;;;5048340;28;20036;-84
2021/09/04 09:54:15;;;;;;;25.33;13.23;;;;;;;;;;5034839;28;20025;-84
2021/09/04 09:56:41;;;;;;;23.20;13.25;;;;;;;;;;5046525;28;20116;-84
2021/09/04 09:59:09;;;;;;;20.83;12.38;;;;;;;;;;5052975;28;20567;-84
2021/09/04 10:01:34;;;;;;;19.63;11.75;;;;;;;;;;5052852;28;20640;-83
2021/09/04 10:04:00;;;;;;;17.87;10.87;;;;;;;;;;5044190;28;20021;-84
2021/09/04 10:06:25;;;;;;;18.90;10.25;;;;;;;;;;5032501;28;20265;-84
2021/09/04 10:08:50;;;;;;;17.50;10.32;;;;;;;;;;5044018;28;20040;-84
2021/09/04 10:11:16;;;;;;;17.50;11.23;;;;;;;;;;5032242;28;20540;-83
2021/09/04 10:13:41;;;;;;;17.75;9.63;;;;;;;;;;5052142;28;20029;-84
2021/09/04 10:16:06;;;;;;;12.82;8.45;;;;;;;;;;5045495;28;20022;-83
2021/09/04 10:18:32;;;;;;;14.85;9.27;;;;;;;;;;5034818;28;20464;-83
2021/09/04 10:21:01;;;;;;;14.25;9.40;;;;;;;;;;5050144;28;20088;-84
2021/09/04 10:23:29;;;;;;;14.30;9.00;;;;;;;;;;5036197;28;20028;-84
2021/09/04 10:25:54;;;;;;;12.60;8.35;;;;;;;;;;5046056;28;20099;-84
2021/09/04 10:28:19;;;;;;;10.43;7.77;;;;;;;;;;5032719;28;20049;-83
2021/09/04 10:30:51;;;;;;;13.50;7.72;;;;;;;;;;5031241;28;20847;-84
2021/09/04 10:33:17;;;;;;;15.07;9.38;;;;;;;;;;5029143;28;20125;-84
2021/09/04 10:35:48;;;;;;;13.23;8.23;;;;;;;;;;5030308;28;20183;-84
2021/09/04 10:38:19;;;;;;;13.73;7.45;;;;;;;;;;5038699;28;20017;-83
2021/09/04 10:40:49;;;;;;;13.25;8.65;;;;;;;;;;5036519;28;20477;-83
2021/09/04 10:43:15;;;;;;;16.17;8.82;;;;;;;;;;5033506;28;20040;-83
2021/09/04 10:45:42;;;;;;;14.43;9.45;;;;;;;;;;5047490;28;20014;-84
2021/09/04 10:48:14;;;;;;;14.93;8.25;;;;;;;;;;5033443;28;20028;-83
2021/09/04 10:50:40;;;;;;;12.68;8.75;;;;;;;;;;5045994;28;20032;-84
2021/09/04 10:53:07;;;;;;;13.10;8.45;;;;;;;;;;5033700;28;20041;-84
2021/09/04 10:55:36;;;;;;;11.52;8.32;;;;;;;;;;5046501;28;20131;-83
2021/09/04 10:58:08;;;;;;;12.30;8.82;;;;;;;;;;5038670;28;20016;-84
2021/09/04 11:00:42;;;;;;;14.75;8.52;;;;;;;;;;5035623;28;20063;-84
2021/09/04 11:03:08;;;;;;;12.45;8.75;;;;;;;;;;5046193;28;20016;-84
2021/09/04 11:05:47;;;;;;;29.63;10.05;;;;;;;;;;5029055;28;20040;-84
2021/09/04 11:08:13;;;;;;;14.95;9.50;;;;;;;;;;5039686;28;20547;-83
2021/09/04 11:10:40;;;;;;;12.73;8.65;;;;;;;;;;5035597;28;20029;-84
2021/09/04 11:13:06;;;;;;;16.42;9.15;;;;;;;;;;5030849;28;20032;-84
2021/09/04 11:15:32;;;;;;;12.38;8.73;;;;;;;;;;5051212;28;20017;-83
2021/09/04 11:17:57;;;;;;;19.00;9.68;;;;;;;;;;5040539;28;20048;-84
2021/09/04 11:20:23;;;;;;;21.73;9.98;;;;;;;;;;5029932;28;20067;-83
2021/09/04 11:22:49;;;;;;;19.10;9.90;;;;;;;;;;5027780;28;20397;-84
2021/09/04 11:25:14;;;;;;;11.35;8.57;;;;;;;;;;5030926;28;20079;-84
2021/09/04 11:27:43;;;;;;;31.67;10.88;;;;;;;;;;5049048;28;20036;-84
2021/09/04 11:30:09;;;;;;;16.65;8.45;;;;;;;;;;5042151;28;20017;-84
2021/09/04 11:32:34;;;;;;;14.95;9.65;;;;;;;;;;5043863;28;20031;-84
2021/09/04 11:35:00;;;;;;;17.77;9.82;;;;;;;;;;5032165;28;20075;-83
2021/09/04 11:37:32;;;;;;;20.38;9.00;;;;;;;;;;5046201;28;20025;-83
2021/09/04 11:40:01;;;;;;;20.08;9.80;;;;;;;;;;5029950;28;20032;-83
2021/09/04 11:42:28;;;;;;;23.15;9.75;;;;;;;;;;5027423;28;20025;-84
2021/09/04 11:45:01;;;;;;;14.15;9.43;;;;;;;;;;5029351;28;20032;-83
2021/09/04 11:47:27;;;;;;;18.50;9.18;;;;;;;;;;5049145;28;20818;-84
2021/09/04 11:49:53;;;;;;;18.60;9.82;;;;;;;;;;5040355;28;20095;-84
2021/09/04 11:52:23;;;;;;;18.55;10.25;;;;;;;;;;5038054;28;20763;-84
2021/09/04 11:54:49;;;;;;;19.92;10.48;;;;;;;;;;5035302;28;20021;-84
2021/09/04 11:57:25;;;;;;;15.88;9.00;;;;;;;;;;5048976;28;20028;-83
2021/09/04 12:00:04;;;;;;;16.17;8.80;;;;;;;;;;5043314;28;20021;-84
2021/09/04 12:02:29;;;;;;;14.00;8.73;;;;;;;;;;5031593;28;20079;-84
2021/09/04 12:04:55;;;;;;;21.30;10.27;;;;;;;;;;5045647;28;20025;-83
2021/09/04 12:07:26;;;;;;;19.05;8.98;;;;;;;;;;5032326;28;20089;-84
2021/09/04 12:09:52;;;;;;;17.73;9.15;;;;;;;;;;5045399;28;20021;-84
2021/09/04 12:12:18;;;;;;;11.20;8.30;;;;;;;;;;5009417;28;20067;-84
2021/09/04 12:14:43;;;;;;;14.30;9.38;;;;;;;;;;5007922;28;20045;-84
2021/09/04 12:17:09;;;;;;;15.02;8.60;;;;;;;;;;5045527;28;20408;-83
2021/09/04 12:19:37;;;;;;;15.65;10.45;;;;;;;;;;5044575;28;20377;-84
2021/09/04 12:22:02;;;;;;;15.10;9.07;;;;;;;;;;5029800;28;20025;-84
2021/09/04 12:24:31;;;;;;;15.45;9.45;;;;;;;;;;5041228;28;20043;-84
2021/09/04 12:26:56;;;;;;;17.98;9.65;;;;;;;;;;5032710;28;20036;-84
2021/09/04 12:29:26;;;;;;;14.68;8.65;;;;;;;;;;5031284;28;20473;-84
2021/09/04 12:31:51;;;;;;;13.48;9.75;;;;;;;;;;5041152;28;20021;-84
2021/09/04 12:34:18;;;;;;;15.68;9.07;;;;;;;;;;5048282;28;20032;-84
2021/09/04 12:36:43;;;;;;;13.25;8.55;;;;;;;;;;5032969;28;20031;-84
2021/09/04 12:39:10;;;;;;;13.88;8.50;;;;;;;;;;5045320;28;20020;-84
2021/09/04 12:41:35;;;;;;;12.45;9.23;;;;;;;;;;5031887;28;20020;-84
2021/09/04 12:44:05;;;;;;;11.35;7.70;;;;;;;;;;5047494;28;20064;-84
2021/09/04 12:46:33;;;;;;;12.85;7.65;;;;;;;;;;5047566;28;20025;-84
2021/09/04 12:49:15;;;;;;;15.77;7.70;;;;;;;;;;5046460;28;20140;-84
2021/09/04 12:51:40;;;;;;;13.52;7.47;;;;;;;;;;5047697;28;20017;-84
2021/09/04 12:54:06;;;;;;;12.53;7.50;;;;;;;;;;5047766;28;20032;-84
2021/09/04 12:56:40;;;;;;;13.35;7.50;;;;;;;;;;5046482;28;20021;-84
2021/09/04 12:59:06;;;;;;;11.18;7.18;;;;;;;;;;5046591;28;20792;-84
2021/09/04 13:01:32;;;;;;;10.13;6.70;;;;;;;;;;5048673;28;20029;-84
2021/09/04 13:03:59;;;;;;;14.05;7.25;;;;;;;;;;5047992;28;20473;-84
2021/09/04 13:06:25;;;;;;;7.75;6.78;;;;;;;;;;5049443;28;20025;-84
2021/09/04 13:08:50;;;;;;;7.73;6.53;;;;;;;;;;5049452;28;20086;-85
2021/09/04 13:11:15;;;;;;;11.43;6.43;;;;;;;;;;5047975;28;20028;-85
2021/09/04 13:13:40;;;;;;;8.87;6.50;;;;;;;;;;5049352;28;20262;-85
2021/09/04 13:16:06;;;;;;;9.90;6.80;;;;;;;;;;5047494;28;20029;-84
2021/09/04 13:18:31;;;;;;;10.90;6.27;;;;;;;;;;5047787;28;20510;-85
2021/09/04 13:20:56;;;;;;;11.30;6.73;;;;;;;;;;5047823;28;20120;-85
2021/09/04 13:23:21;;;;;;;10.53;6.03;;;;;;;;;;5049007;28;20017;-84
2021/09/04 13:25:46;;;;;;;7.63;6.20;;;;;;;;;;5049172;28;20525;-85
2021/09/04 13:28:12;;;;;;;9.70;5.97;;;;;;;;;;5049201;28;20021;-85
2021/09/04 13:30:37;;;;;;;7.77;5.80;;;;;;;;;;5047567;28;20033;-85
2021/09/04 13:33:02;;;;;;;9.32;5.90;;;;;;;;;;5049286;28;20538;-85
2021/09/04 13:35:29;;;;;;;7.67;5.50;;;;;;;;;;5052750;28;20025;-85
2021/09/04 13:37:54;;;;;;;9.80;5.45;;;;;;;;;;5052556;28;20254;-85
2021/09/04 13:40:19;;;;;;;8.43;6.57;;;;;;;;;;5051332;28;20107;-85
2021/09/04 13:42:45;;;;;;;7.93;5.73;;;;;;;;;;5052463;28;20732;-85
2021/09/04 13:45:10;;;;;;;6.23;5.40;;;;;;;;;;5052613;28;20025;-85
2021/09/04 13:47:35;;;;;;;7.20;5.88;;;;;;;;;;5052453;28;20394;-85
2021/09/04 13:50:00;;;;;;;7.17;5.37;;;;;;;;;;5052450;28;20074;-85
2021/09/04 13:52:26;;;;;;;6.73;5.40;;;;;;;;;;5052523;28;20029;-85
2021/09/04 13:54:51;;;;;;;8.73;5.43;;;;;;;;;;5050816;28;20504;-85
2021/09/04 13:57:16;;;;;;;10.60;5.60;;;;;;;;;;5050867;28;20032;-85
2021/09/04 13:59:42;;;;;;;9.57;5.38;;;;;;;;;;5050939;28;20029;-85
2021/09/04 14:02:07;;;;;;;8.57;5.53;;;;;;;;;;5052054;28;20500;-85
2021/09/04 14:04:32;;;;;;;9.57;5.50;;;;;;;;;;5050823;28;20087;-86
2021/09/04 14:06:57;;;;;;;9.17;5.33;;;;;;;;;;5052064;28;20181;-85
2021/09/04 14:09:22;;;;;;;8.27;5.07;;;;;;;;;;5050864;28;20040;-85
2021/09/04 14:11:48;;;;;;;8.37;5.57;;;;;;;;;;5051730;28;20323;-85
2021/09/04 14:14:13;;;;;;;8.03;5.37;;;;;;;;;;5051973;28;20040;-85
2021/09/04 14:16:38;;;;;;;11.13;5.23;;;;;;;;;;5050321;28;20045;-84